sensor_id;sensor_type;location;lat;lon;timestamp;pressure;altitude;pressure_sealevel;temperature;humidity
76753;BME280;65687;51.308;16.916;2023-05-10T00:00:54;99725.58;;;9.41;54.08
76753;BME280;65687;51.308;16.916;2023-05-10T00:05:56;99721.03;;;9.31;54.38
76753;BME280;65687;51.308;16.916;2023-05-10T00:10:58;99721.88;;;9.21;54.87
76753;BME280;65687;51.308;16.916;2023-05-10T00:15:59;99721.92;;;9.15;55.25
76753;BME280;65687;51.308;16.916;2023-05-10T00:21:01;99717.58;;;9.10;55.15
76753;BME280;65687;51.308;16.916;2023-05-10T00:26:02;99714.92;;;9.04;55.35
76753;BME280;65687;51.308;16.916;2023-05-10T00:31:04;99712.21;;;8.96;55.69
76753;BME280;65687;51.308;16.916;2023-05-10T00:36:06;99705.98;;;8.89;55.98
76753;BME280;65687;51.308;16.916;2023-05-10T00:41:08;99702.76;;;8.83;56.35
76753;BME280;65687;51.308;16.916;2023-05-10T00:46:10;99700.64;;;8.79;56.42
76753;BME280;65687;51.308;16.916;2023-05-10T00:51:13;99700.52;;;8.76;56.45
76753;BME280;65687;51.308;16.916;2023-05-10T00:56:15;99694.66;;;8.71;56.78
76753;BME280;65687;51.308;16.916;2023-05-10T01:01:17;99698.14;;;8.68;56.87
76753;BME280;65687;51.308;16.916;2023-05-10T01:06:18;99695.52;;;8.64;56.81
76753;BME280;65687;51.308;16.916;2023-05-10T01:11:20;99688.28;;;8.57;56.88
76753;BME280;65687;51.308;16.916;2023-05-10T01:16:23;99686.67;;;8.54;57.59
76753;BME280;65687;51.308;16.916;2023-05-10T01:27:37;99688.54;;;8.42;57.89
76753;BME280;65687;51.308;16.916;2023-05-10T01:32:47;99691.85;;;8.36;58.17
76753;BME280;65687;51.308;16.916;2023-05-10T01:38:04;99687.05;;;8.33;58.44
76753;BME280;65687;51.308;16.916;2023-05-10T01:43:23;99690.57;;;8.30;58.55
76753;BME280;65687;51.308;16.916;2023-05-10T01:48:27;99686.44;;;8.27;58.77
76753;BME280;65687;51.308;16.916;2023-05-10T01:53:30;99685.97;;;8.25;58.75
76753;BME280;65687;51.308;16.916;2023-05-10T01:58:33;99685.42;;;8.20;58.99
76753;BME280;65687;51.308;16.916;2023-05-10T02:03:37;99683.16;;;8.17;58.89
76753;BME280;65687;51.308;16.916;2023-05-10T02:08:40;99677.57;;;8.16;59.01
76753;BME280;65687;51.308;16.916;2023-05-10T02:13:42;99674.77;;;8.15;59.14
76753;BME280;65687;51.308;16.916;2023-05-10T02:18:45;99674.73;;;8.11;59.40
76753;BME280;65687;51.308;16.916;2023-05-10T02:23:50;99669.63;;;8.08;59.44
76753;BME280;65687;51.308;16.916;2023-05-10T02:28:53;99667.40;;;8.05;59.49
76753;BME280;65687;51.308;16.916;2023-05-10T02:33:57;99669.20;;;8.05;59.73
76753;BME280;65687;51.308;16.916;2023-05-10T02:39:00;99668.52;;;8.04;59.75
76753;BME280;65687;51.308;16.916;2023-05-10T02:44:04;99666.00;;;8.04;59.56
76753;BME280;65687;51.308;16.916;2023-05-10T02:49:08;99663.36;;;8.05;59.61
76753;BME280;65687;51.308;16.916;2023-05-10T02:54:12;99659.46;;;8.05;59.85
76753;BME280;65687;51.308;16.916;2023-05-10T02:59:17;99656.45;;;8.03;59.79
76753;BME280;65687;51.308;16.916;2023-05-10T03:04:18;99658.96;;;8.00;59.94
76753;BME280;65687;51.308;16.916;2023-05-10T03:09:20;99660.10;;;8.00;59.78
76753;BME280;65687;51.308;16.916;2023-05-10T03:14:42;99663.53;;;7.98;59.69
76753;BME280;65687;51.308;16.916;2023-05-10T03:19:58;99661.52;;;7.98;59.94
76753;BME280;65687;51.308;16.916;2023-05-10T03:25:07;99661.13;;;7.95;60.09
76753;BME280;65687;51.308;16.916;2023-05-10T03:30:11;99661.17;;;7.92;60.14
76753;BME280;65687;51.308;16.916;2023-05-10T03:35:13;99665.42;;;7.90;60.05
76753;BME280;65687;51.308;16.916;2023-05-10T03:40:15;99663.66;;;7.89;60.15
76753;BME280;65687;51.308;16.916;2023-05-10T03:45:17;99661.92;;;7.86;60.25
76753;BME280;65687;51.308;16.916;2023-05-10T03:50:18;99657.11;;;7.84;60.40
76753;BME280;65687;51.308;16.916;2023-05-10T03:55:20;99656.94;;;7.84;60.51
76753;BME280;65687;51.308;16.916;2023-05-10T04:00:22;99651.43;;;7.85;60.33
76753;BME280;65687;51.308;16.916;2023-05-10T04:05:23;99648.25;;;7.85;60.41
76753;BME280;65687;51.308;16.916;2023-05-10T04:10:25;99651.02;;;7.86;60.63
76753;BME280;65687;51.308;16.916;2023-05-10T04:15:26;99652.79;;;7.85;60.52
76753;BME280;65687;51.308;16.916;2023-05-10T04:20:28;99655.36;;;7.88;60.54
76753;BME280;65687;51.308;16.916;2023-05-10T04:25:29;99651.23;;;7.91;60.74
76753;BME280;65687;51.308;16.916;2023-05-10T04:30:31;99651.95;;;7.94;60.58
76753;BME280;65687;51.308;16.916;2023-05-10T04:35:32;99648.08;;;7.99;60.43
76753;BME280;65687;51.308;16.916;2023-05-10T04:40:34;99647.25;;;8.06;60.27
76753;BME280;65687;51.308;16.916;2023-05-10T04:45:35;99646.34;;;8.12;60.49
76753;BME280;65687;51.308;16.916;2023-05-10T04:50:37;99647.61;;;8.21;59.57
76753;BME280;65687;51.308;16.916;2023-05-10T04:55:38;99648.84;;;8.31;59.87
76753;BME280;65687;51.308;16.916;2023-05-10T05:00:40;99642.89;;;8.39;59.16
76753;BME280;65687;51.308;16.916;2023-05-10T05:05:41;99647.25;;;8.48;59.03
76753;BME280;65687;51.308;16.916;2023-05-10T05:10:43;99640.94;;;8.57;59.18
76753;BME280;65687;51.308;16.916;2023-05-10T05:15:44;99643.91;;;8.65;59.04
76753;BME280;65687;51.308;16.916;2023-05-10T05:20:46;99645.25;;;8.75;58.98
76753;BME280;65687;51.308;16.916;2023-05-10T05:25:47;99640.36;;;8.87;58.76
76753;BME280;65687;51.308;16.916;2023-05-10T05:30:49;99637.33;;;9.02;58.72
76753;BME280;65687;51.308;16.916;2023-05-10T05:35:50;99636.64;;;9.17;58.49
76753;BME280;65687;51.308;16.916;2023-05-10T05:40:52;99634.38;;;9.31;58.42
76753;BME280;65687;51.308;16.916;2023-05-10T05:45:53;99639.27;;;9.46;57.78
76753;BME280;65687;51.308;16.916;2023-05-10T05:50:55;99644.28;;;9.60;57.28
76753;BME280;65687;51.308;16.916;2023-05-10T05:55:58;99642.59;;;9.76;57.15
76753;BME280;65687;51.308;16.916;2023-05-10T06:00:59;99641.18;;;9.91;57.16
76753;BME280;65687;51.308;16.916;2023-05-10T06:06:01;99641.66;;;10.06;56.83
76753;BME280;65687;51.308;16.916;2023-05-10T06:11:03;99642.11;;;10.23;56.14
76753;BME280;65687;51.308;16.916;2023-05-10T06:16:05;99641.66;;;10.40;55.74
76753;BME280;65687;51.308;16.916;2023-05-10T06:21:07;99647.20;;;10.59;54.89
76753;BME280;65687;51.308;16.916;2023-05-10T06:26:08;99647.31;;;10.77;54.30
76753;BME280;65687;51.308;16.916;2023-05-10T06:31:10;99644.95;;;10.97;54.58
76753;BME280;65687;51.308;16.916;2023-05-10T06:36:13;99642.86;;;11.15;53.67
76753;BME280;65687;51.308;16.916;2023-05-10T06:41:14;99637.90;;;11.32;53.19
76753;BME280;65687;51.308;16.916;2023-05-10T06:46:16;99630.74;;;11.50;52.74
76753;BME280;65687;51.308;16.916;2023-05-10T06:51:17;99631.96;;;11.72;52.33
76753;BME280;65687;51.308;16.916;2023-05-10T06:56:19;99632.45;;;11.92;51.89
76753;BME280;65687;51.308;16.916;2023-05-10T07:01:22;99634.52;;;12.11;51.26
76753;BME280;65687;51.308;16.916;2023-05-10T07:06:24;99632.81;;;12.29;50.98
76753;BME280;65687;51.308;16.916;2023-05-10T07:11:25;99626.42;;;12.48;51.22
76753;BME280;65687;51.308;16.916;2023-05-10T07:16:27;99622.20;;;12.71;50.56
76753;BME280;65687;51.308;16.916;2023-05-10T07:21:29;99621.22;;;12.91;50.76
76753;BME280;65687;51.308;16.916;2023-05-10T07:26:32;99619.26;;;13.15;50.75
76753;BME280;65687;51.308;16.916;2023-05-10T07:31:34;99617.52;;;13.44;50.22
76753;BME280;65687;51.308;16.916;2023-05-10T07:36:35;99619.33;;;13.67;49.17
76753;BME280;65687;51.308;16.916;2023-05-10T07:41:37;99609.47;;;13.87;48.52
76753;BME280;65687;51.308;16.916;2023-05-10T07:46:39;99603.25;;;14.09;49.13
76753;BME280;65687;51.308;16.916;2023-05-10T07:51:41;99601.76;;;14.43;48.81
76753;BME280;65687;51.308;16.916;2023-05-10T07:56:43;99599.11;;;14.63;47.79
76753;BME280;65687;51.308;16.916;2023-05-10T08:01:48;99598.55;;;14.81;48.02
76753;BME280;65687;51.308;16.916;2023-05-10T08:06:49;99597.21;;;15.01;47.71
76753;BME280;65687;51.308;16.916;2023-05-10T08:11:51;99594.80;;;15.23;47.57
76753;BME280;65687;51.308;16.916;2023-05-10T08:16:53;99592.84;;;15.58;47.26
76753;BME280;65687;51.308;16.916;2023-05-10T08:21:54;99585.28;;;15.90;46.92
76753;BME280;65687;51.308;16.916;2023-05-10T08:26:56;99579.29;;;16.15;46.30
76753;BME280;65687;51.308;16.916;2023-05-10T08:31:58;99583.61;;;16.47;46.80
76753;BME280;65687;51.308;16.916;2023-05-10T08:37:00;99579.78;;;16.77;45.81
76753;BME280;65687;51.308;16.916;2023-05-10T08:42:03;99581.14;;;16.91;44.78
76753;BME280;65687;51.308;16.916;2023-05-10T08:47:06;99578.38;;;17.00;44.49
76753;BME280;65687;51.308;16.916;2023-05-10T08:52:11;99581.46;;;17.10;44.75
76753;BME280;65687;51.308;16.916;2023-05-10T08:57:14;99578.65;;;17.32;44.41
76753;BME280;65687;51.308;16.916;2023-05-10T09:02:16;99573.30;;;17.46;44.01
76753;BME280;65687;51.308;16.916;2023-05-10T09:07:19;99568.86;;;17.61;43.93
76753;BME280;65687;51.308;16.916;2023-05-10T09:12:21;99566.85;;;17.88;43.60
76753;BME280;65687;51.308;16.916;2023-05-10T09:17:23;99571.46;;;17.88;42.78
76753;BME280;65687;51.308;16.916;2023-05-10T09:22:26;99573.50;;;17.99;42.49
76753;BME280;65687;51.308;16.916;2023-05-10T09:27:28;99566.50;;;18.33;42.42
76753;BME280;65687;51.308;16.916;2023-05-10T09:32:36;99565.77;;;18.48;41.92
76753;BME280;65687;51.308;16.916;2023-05-10T09:37:38;99571.59;;;18.84;41.39
76753;BME280;65687;51.308;16.916;2023-05-10T09:43:07;99571.16;;;18.80;40.80
76753;BME280;65687;51.308;16.916;2023-05-10T09:48:09;99573.86;;;18.98;40.87
76753;BME280;65687;51.308;16.916;2023-05-10T09:53:14;99575.02;;;19.34;40.79
76753;BME280;65687;51.308;16.916;2023-05-10T09:58:17;99572.09;;;19.47;39.26
76753;BME280;65687;51.308;16.916;2023-05-10T10:03:21;99568.48;;;19.53;38.96
76753;BME280;65687;51.308;16.916;2023-05-10T10:08:25;99558.36;;;19.52;38.54
76753;BME280;65687;51.308;16.916;2023-05-10T10:13:29;99555.16;;;19.61;39.13
76753;BME280;65687;51.308;16.916;2023-05-10T10:18:31;99553.67;;;19.57;38.10
76753;BME280;65687;51.308;16.916;2023-05-10T10:23:32;99552.50;;;19.58;38.36
76753;BME280;65687;51.308;16.916;2023-05-10T10:39:24;99542.50;;;19.99;37.85
76753;BME280;65687;51.308;16.916;2023-05-10T10:54:59;99535.66;;;20.00;37.40
76753;BME280;65687;51.308;16.916;2023-05-10T11:00:36;99529.23;;;19.97;38.15
76753;BME280;65687;51.308;16.916;2023-05-10T11:05:42;99531.85;;;20.06;38.34
76753;BME280;65687;51.308;16.916;2023-05-10T11:21:22;99523.60;;;19.83;39.12
76753;BME280;65687;51.308;16.916;2023-05-10T11:26:25;99523.94;;;19.82;38.17
76753;BME280;65687;51.308;16.916;2023-05-10T11:31:28;99521.27;;;19.93;38.37
76753;BME280;65687;51.308;16.916;2023-05-10T11:36:33;99520.46;;;19.87;37.91
76753;BME280;65687;51.308;16.916;2023-05-10T11:41:35;99513.30;;;19.89;38.46
76753;BME280;65687;51.308;16.916;2023-05-10T11:46:37;99514.56;;;19.92;38.09
76753;BME280;65687;51.308;16.916;2023-05-10T11:51:39;99519.34;;;19.83;38.34
76753;BME280;65687;51.308;16.916;2023-05-10T11:56:41;99518.05;;;19.65;37.99
76753;BME280;65687;51.308;16.916;2023-05-10T12:01:42;99519.15;;;19.53;38.87
76753;BME280;65687;51.308;16.916;2023-05-10T12:06:44;99512.52;;;19.56;38.62
76753;BME280;65687;51.308;16.916;2023-05-10T12:11:47;99512.24;;;19.73;38.15
76753;BME280;65687;51.308;16.916;2023-05-10T12:16:49;99512.92;;;19.65;38.31
76753;BME280;65687;51.308;16.916;2023-05-10T12:21:52;99514.79;;;19.56;38.79
76753;BME280;65687;51.308;16.916;2023-05-10T12:26:54;99512.45;;;19.46;39.63
76753;BME280;65687;51.308;16.916;2023-05-10T12:31:57;99515.63;;;19.43;39.70
76753;BME280;65687;51.308;16.916;2023-05-10T12:36:59;99503.48;;;19.30;39.10
76753;BME280;65687;51.308;16.916;2023-05-10T12:42:01;99509.85;;;19.32;39.46
76753;BME280;65687;51.308;16.916;2023-05-10T12:47:03;99514.63;;;19.24;39.21
76753;BME280;65687;51.308;16.916;2023-05-10T12:52:05;99516.94;;;19.07;38.80
76753;BME280;65687;51.308;16.916;2023-05-10T12:57:06;99520.13;;;18.92;39.80
76753;BME280;65687;51.308;16.916;2023-05-10T13:02:08;99513.61;;;19.04;39.53
76753;BME280;65687;51.308;16.916;2023-05-10T13:07:10;99512.52;;;19.09;39.52
76753;BME280;65687;51.308;16.916;2023-05-10T13:12:12;99517.08;;;19.06;39.62
76753;BME280;65687;51.308;16.916;2023-05-10T13:17:14;99506.16;;;19.14;39.66
76753;BME280;65687;51.308;16.916;2023-05-10T13:22:16;99503.68;;;19.32;38.57
76753;BME280;65687;51.308;16.916;2023-05-10T13:27:18;99504.05;;;19.33;39.01
76753;BME280;65687;51.308;16.916;2023-05-10T13:32:19;99495.80;;;19.31;39.10
76753;BME280;65687;51.308;16.916;2023-05-10T13:37:21;99505.98;;;19.20;38.81
76753;BME280;65687;51.308;16.916;2023-05-10T13:42:23;99501.62;;;19.04;38.85
76753;BME280;65687;51.308;16.916;2023-05-10T13:47:25;99498.54;;;18.91;38.90
76753;BME280;65687;51.308;16.916;2023-05-10T13:52:27;99487.80;;;18.99;39.27
76753;BME280;65687;51.308;16.916;2023-05-10T13:57:28;99483.48;;;19.18;39.01
76753;BME280;65687;51.308;16.916;2023-05-10T14:02:33;99487.17;;;19.29;38.73
76753;BME280;65687;51.308;16.916;2023-05-10T14:07:35;99482.20;;;19.48;38.62
76753;BME280;65687;51.308;16.916;2023-05-10T14:12:36;99477.79;;;19.50;38.20
76753;BME280;65687;51.308;16.916;2023-05-10T14:17:38;99483.77;;;19.43;37.48
76753;BME280;65687;51.308;16.916;2023-05-10T14:22:39;99474.64;;;19.27;37.66
76753;BME280;65687;51.308;16.916;2023-05-10T14:27:41;99476.73;;;19.22;37.78
76753;BME280;65687;51.308;16.916;2023-05-10T14:32:43;99478.41;;;19.35;37.87
76753;BME280;65687;51.308;16.916;2023-05-10T14:37:45;99473.95;;;19.34;37.49
76753;BME280;65687;51.308;16.916;2023-05-10T14:42:46;99475.75;;;19.31;37.62
76753;BME280;65687;51.308;16.916;2023-05-10T14:47:49;99476.36;;;19.27;37.32
76753;BME280;65687;51.308;16.916;2023-05-10T14:52:50;99480.09;;;19.19;37.38
76753;BME280;65687;51.308;16.916;2023-05-10T14:57:53;99480.95;;;19.12;37.04
76753;BME280;65687;51.308;16.916;2023-05-10T15:02:55;99476.63;;;18.97;37.47
76753;BME280;65687;51.308;16.916;2023-05-10T15:07:57;99475.14;;;18.93;37.90
76753;BME280;65687;51.308;16.916;2023-05-10T15:12:59;99477.94;;;18.95;37.63
76753;BME280;65687;51.308;16.916;2023-05-10T15:18:01;99476.94;;;18.96;37.88
76753;BME280;65687;51.308;16.916;2023-05-10T15:23:04;99473.31;;;19.08;37.75
76753;BME280;65687;51.308;16.916;2023-05-10T15:28:07;99469.19;;;19.21;37.72
76753;BME280;65687;51.308;16.916;2023-05-10T15:33:08;99472.77;;;19.28;37.03
76753;BME280;65687;51.308;16.916;2023-05-10T15:38:10;99473.50;;;19.23;36.90
76753;BME280;65687;51.308;16.916;2023-05-10T15:43:12;99477.89;;;19.13;37.35
76753;BME280;65687;51.308;16.916;2023-05-10T15:48:14;99484.27;;;19.08;38.03
76753;BME280;65687;51.308;16.916;2023-05-10T15:53:18;99476.27;;;19.04;37.32
76753;BME280;65687;51.308;16.916;2023-05-10T15:58:20;99474.08;;;18.98;37.59
76753;BME280;65687;51.308;16.916;2023-05-10T16:03:22;99481.39;;;18.90;37.49
76753;BME280;65687;51.308;16.916;2023-05-10T16:08:23;99482.72;;;18.81;37.52
76753;BME280;65687;51.308;16.916;2023-05-10T16:13:25;99481.55;;;18.76;37.57
76753;BME280;65687;51.308;16.916;2023-05-10T16:18:27;99485.27;;;18.74;37.88
76753;BME280;65687;51.308;16.916;2023-05-10T16:23:28;99482.04;;;18.75;37.19
76753;BME280;65687;51.308;16.916;2023-05-10T16:28:30;99484.48;;;18.77;37.41
76753;BME280;65687;51.308;16.916;2023-05-10T16:33:32;99490.31;;;18.77;38.07
76753;BME280;65687;51.308;16.916;2023-05-10T16:38:34;99492.98;;;18.74;38.85
76753;BME280;65687;51.308;16.916;2023-05-10T16:43:35;99495.82;;;18.66;38.81
76753;BME280;65687;51.308;16.916;2023-05-10T16:48:37;99497.02;;;18.60;39.26
76753;BME280;65687;51.308;16.916;2023-05-10T16:53:38;99499.02;;;18.53;39.50
76753;BME280;65687;51.308;16.916;2023-05-10T16:58:40;99500.80;;;18.43;39.48
76753;BME280;65687;51.308;16.916;2023-05-10T17:03:41;99507.70;;;18.34;39.29
76753;BME280;65687;51.308;16.916;2023-05-10T17:08:43;99508.95;;;18.29;39.50
76753;BME280;65687;51.308;16.916;2023-05-10T17:13:45;99514.20;;;18.22;39.95
76753;BME280;65687;51.308;16.916;2023-05-10T17:18:46;99515.08;;;18.16;40.21
76753;BME280;65687;51.308;16.916;2023-05-10T17:23:48;99521.52;;;18.09;40.46
76753;BME280;65687;51.308;16.916;2023-05-10T17:28:52;99524.73;;;18.02;40.81
76753;BME280;65687;51.308;16.916;2023-05-10T17:33:54;99525.73;;;17.96;41.10
76753;BME280;65687;51.308;16.916;2023-05-10T17:38:56;99530.95;;;17.93;41.24
76753;BME280;65687;51.308;16.916;2023-05-10T17:43:57;99531.84;;;17.88;40.70
76753;BME280;65687;51.308;16.916;2023-05-10T17:48:59;99529.66;;;17.85;41.33
76753;BME280;65687;51.308;16.916;2023-05-10T17:54:01;99535.35;;;17.81;41.95
76753;BME280;65687;51.308;16.916;2023-05-10T17:59:02;99542.14;;;17.74;42.44
76753;BME280;65687;51.308;16.916;2023-05-10T18:04:04;99544.28;;;17.66;42.32
76753;BME280;65687;51.308;16.916;2023-05-10T18:09:06;99549.69;;;17.54;42.96
76753;BME280;65687;51.308;16.916;2023-05-10T18:14:07;99556.04;;;17.45;44.86
76753;BME280;65687;51.308;16.916;2023-05-10T18:19:09;99559.14;;;17.25;46.48
76753;BME280;65687;51.308;16.916;2023-05-10T18:24:10;99563.41;;;17.11;47.55
76753;BME280;65687;51.308;16.916;2023-05-10T18:29:12;99565.73;;;16.89;49.77
76753;BME280;65687;51.308;16.916;2023-05-10T18:34:14;99569.97;;;16.65;50.70
76753;BME280;65687;51.308;16.916;2023-05-10T18:39:15;99572.04;;;16.43;52.37
76753;BME280;65687;51.308;16.916;2023-05-10T18:44:18;99577.23;;;16.27;52.81
76753;BME280;65687;51.308;16.916;2023-05-10T18:49:22;99584.80;;;15.99;55.16
76753;BME280;65687;51.308;16.916;2023-05-10T18:54:24;99593.41;;;15.75;55.84
76753;BME280;65687;51.308;16.916;2023-05-10T18:59:25;99603.12;;;15.55;57.03
76753;BME280;65687;51.308;16.916;2023-05-10T19:04:28;99605.04;;;15.32;57.33
76753;BME280;65687;51.308;16.916;2023-05-10T19:09:29;99606.42;;;15.14;57.70
76753;BME280;65687;51.308;16.916;2023-05-10T19:14:31;99611.67;;;14.97;58.61
76753;BME280;65687;51.308;16.916;2023-05-10T19:19:32;99614.83;;;14.80;59.51
76753;BME280;65687;51.308;16.916;2023-05-10T19:24:34;99617.81;;;14.63;59.74
76753;BME280;65687;51.308;16.916;2023-05-10T19:29:35;99621.00;;;14.51;59.34
76753;BME280;65687;51.308;16.916;2023-05-10T19:34:37;99623.73;;;14.47;59.00
76753;BME280;65687;51.308;16.916;2023-05-10T19:39:39;99629.57;;;14.45;58.14
76753;BME280;65687;51.308;16.916;2023-05-10T19:44:40;99633.47;;;14.45;58.28
76753;BME280;65687;51.308;16.916;2023-05-10T19:49:42;99638.33;;;14.47;58.11
76753;BME280;65687;51.308;16.916;2023-05-10T19:54:44;99641.54;;;14.50;55.87
76753;BME280;65687;51.308;16.916;2023-05-10T19:59:46;99642.65;;;14.59;54.83
76753;BME280;65687;51.308;16.916;2023-05-10T20:04:47;99642.57;;;14.65;52.56
76753;BME280;65687;51.308;16.916;2023-05-10T20:09:49;99645.15;;;14.74;51.40
76753;BME280;65687;51.308;16.916;2023-05-10T20:14:50;99644.33;;;14.77;50.27
76753;BME280;65687;51.308;16.916;2023-05-10T20:19:52;99648.95;;;14.78;49.78
76753;BME280;65687;51.308;16.916;2023-05-10T20:24:53;99651.53;;;14.75;49.57
76753;BME280;65687;51.308;16.916;2023-05-10T20:29:54;99654.36;;;14.71;49.44
76753;BME280;65687;51.308;16.916;2023-05-10T20:34:56;99652.95;;;14.66;49.21
76753;BME280;65687;51.308;16.916;2023-05-10T20:39:58;99655.27;;;14.57;49.29
76753;BME280;65687;51.308;16.916;2023-05-10T20:45:00;99660.09;;;14.51;49.11
76753;BME280;65687;51.308;16.916;2023-05-10T20:50:01;99659.35;;;14.46;49.26
76753;BME280;65687;51.308;16.916;2023-05-10T20:55:03;99658.50;;;14.39;49.44
76753;BME280;65687;51.308;16.916;2023-05-10T21:00:05;99656.93;;;14.35;49.50
76753;BME280;65687;51.308;16.916;2023-05-10T21:05:07;99661.05;;;14.29;49.60
76753;BME280;65687;51.308;16.916;2023-05-10T21:10:10;99660.42;;;14.22;49.86
76753;BME280;65687;51.308;16.916;2023-05-10T21:15:11;99663.89;;;14.13;50.08
76753;BME280;65687;51.308;16.916;2023-05-10T21:20:13;99664.52;;;14.09;50.05
76753;BME280;65687;51.308;16.916;2023-05-10T21:25:15;99667.48;;;14.03;50.13
76753;BME280;65687;51.308;16.916;2023-05-10T21:30:17;99668.95;;;13.99;50.15
76753;BME280;65687;51.308;16.916;2023-05-10T21:35:19;99668.58;;;13.95;50.33
76753;BME280;65687;51.308;16.916;2023-05-10T21:40:20;99668.27;;;13.88;50.64
76753;BME280;65687;51.308;16.916;2023-05-10T21:45:22;99670.51;;;13.79;50.83
76753;BME280;65687;51.308;16.916;2023-05-10T21:50:24;99670.54;;;13.69;50.88
76753;BME280;65687;51.308;16.916;2023-05-10T21:55:26;99668.85;;;13.62;51.04
76753;BME280;65687;51.308;16.916;2023-05-10T22:00:27;99671.59;;;13.56;51.00
76753;BME280;65687;51.308;16.916;2023-05-10T22:05:29;99678.08;;;13.54;51.11
76753;BME280;65687;51.308;16.916;2023-05-10T22:10:30;99679.64;;;13.51;51.26
76753;BME280;65687;51.308;16.916;2023-05-10T22:15:33;99686.15;;;13.49;50.99
76753;BME280;65687;51.308;16.916;2023-05-10T22:20:35;99687.94;;;13.47;50.98
76753;BME280;65687;51.308;16.916;2023-05-10T22:25:36;99681.86;;;13.44;50.86
76753;BME280;65687;51.308;16.916;2023-05-10T22:30:40;99688.38;;;13.39;51.13
76753;BME280;65687;51.308;16.916;2023-05-10T22:35:42;99689.84;;;13.35;51.06
76753;BME280;65687;51.308;16.916;2023-05-10T22:40:43;99685.95;;;13.31;51.03
76753;BME280;65687;51.308;16.916;2023-05-10T22:45:45;99683.83;;;13.27;50.99
76753;BME280;65687;51.308;16.916;2023-05-10T22:50:46;99684.17;;;13.24;51.28
76753;BME280;65687;51.308;16.916;2023-05-10T22:55:48;99685.29;;;13.19;51.40
76753;BME280;65687;51.308;16.916;2023-05-10T23:00:50;99687.45;;;13.12;51.39
76753;BME280;65687;51.308;16.916;2023-05-10T23:05:52;99687.95;;;13.05;51.30
76753;BME280;65687;51.308;16.916;2023-05-10T23:10:53;99687.21;;;13.01;51.55
76753;BME280;65687;51.308;16.916;2023-05-10T23:15:55;99692.09;;;12.97;51.52
76753;BME280;65687;51.308;16.916;2023-05-10T23:20:56;99693.05;;;12.93;51.65
76753;BME280;65687;51.308;16.916;2023-05-10T23:25:58;99688.05;;;12.88;51.51
76753;BME280;65687;51.308;16.916;2023-05-10T23:30:59;99694.89;;;12.87;51.69
76753;BME280;65687;51.308;16.916;2023-05-10T23:36:01;99691.70;;;12.87;51.47
76753;BME280;65687;51.308;16.916;2023-05-10T23:41:03;99696.44;;;12.87;51.41
76753;BME280;65687;51.308;16.916;2023-05-10T23:46:04;99695.54;;;12.86;51.56
76753;BME280;65687;51.308;16.916;2023-05-10T23:51:06;99697.80;;;12.84;51.31
76753;BME280;65687;51.308;16.916;2023-05-10T23:56:08;99700.16;;;12.77;51.37
